sensor_id;sensor_type;location;lat;lon;timestamp;pressure;altitude;pressure_sealevel;temperature;humidity
10145;BME280;5113;41.822;23.564;2024-02-15T00:01:26;-11168.37;;;8.46;54.91
10145;BME280;5113;41.822;23.564;2024-02-15T00:04:36;-11176.66;;;8.76;54.58
10145;BME280;5113;41.822;23.564;2024-02-15T00:07:42;-11160.22;;;8.17;55.12
10145;BME280;5113;41.822;23.564;2024-02-15T00:10:53;-11152.91;;;7.90;55.85
10145;BME280;5113;41.822;23.564;2024-02-15T00:14:00;-11152.06;;;7.87;55.28
10145;BME280;5113;41.822;23.564;2024-02-15T00:17:07;-11161.06;;;8.20;55.46
10145;BME280;5113;41.822;23.564;2024-02-15T00:20:15;-11151.50;;;7.85;55.35
10145;BME280;5113;41.822;23.564;2024-02-15T00:23:23;-11168.37;;;8.46;54.31
10145;BME280;5113;41.822;23.564;2024-02-15T00:26:30;-11146.44;;;7.67;55.72
10145;BME280;5113;41.822;23.564;2024-02-15T00:29:37;-11139.13;;;7.41;56.30
10145;BME280;5113;41.822;23.564;2024-02-15T00:32:45;-11149.66;;;7.79;55.40
10145;BME280;5113;41.822;23.564;2024-02-15T00:35:54;-11151.22;;;7.84;55.64
10145;BME280;5113;41.822;23.564;2024-02-15T00:39:01;-11144.63;;;7.60;55.96
10145;BME280;5113;41.822;23.564;2024-02-15T00:42:09;-11141.66;;;7.50;55.80
10145;BME280;5113;41.822;23.564;2024-02-15T00:45:16;-11144.06;;;7.58;56.21
10145;BME280;5113;41.822;23.564;2024-02-15T00:48:23;-11141.94;;;7.51;56.17
10145;BME280;5113;41.822;23.564;2024-02-15T00:51:36;-11142.50;;;7.53;56.25
10145;BME280;5113;41.822;23.564;2024-02-15T00:54:43;-11140.25;;;7.45;56.01
10145;BME280;5113;41.822;23.564;2024-02-15T00:57:50;-11139.97;;;7.44;56.42
10145;BME280;5113;41.822;23.564;2024-02-15T01:00:57;-11139.13;;;7.41;55.68
10145;BME280;5113;41.822;23.564;2024-02-15T01:04:05;-11142.50;;;7.53;55.94
10145;BME280;5113;41.822;23.564;2024-02-15T01:07:13;-11132.94;;;7.18;56.48
10145;BME280;5113;41.822;23.564;2024-02-15T01:10:20;-11130.97;;;7.11;57.06
10145;BME280;5113;41.822;23.564;2024-02-15T01:13:27;-11132.81;;;7.18;56.80
10145;BME280;5113;41.822;23.564;2024-02-15T01:16:33;-11142.78;;;7.54;56.12
10145;BME280;5113;41.822;23.564;2024-02-15T01:19:41;-11150.22;;;7.81;55.87
10145;BME280;5113;41.822;23.564;2024-02-15T01:22:49;-11137.03;;;7.33;56.50
10145;BME280;5113;41.822;23.564;2024-02-15T01:25:57;-11135.75;;;7.28;56.44
10145;BME280;5113;41.822;23.564;2024-02-15T01:29:06;-11138.56;;;7.39;55.77
10145;BME280;5113;41.822;23.564;2024-02-15T01:32:15;-11123.97;;;6.86;57.06
10145;BME280;5113;41.822;23.564;2024-02-15T01:35:22;-11133.94;;;7.22;56.35
10145;BME280;5113;41.822;23.564;2024-02-15T01:38:30;-11137.72;;;7.36;55.83
10145;BME280;5113;41.822;23.564;2024-02-15T01:41:37;-11124.25;;;6.87;57.02
10145;BME280;5113;41.822;23.564;2024-02-15T01:44:44;-11122.00;;;6.79;57.39
10145;BME280;5113;41.822;23.564;2024-02-15T01:47:53;-11126.06;;;6.93;56.82
10145;BME280;5113;41.822;23.564;2024-02-15T01:51:00;-11098.81;;;5.95;58.88
10145;BME280;5113;41.822;23.564;2024-02-15T01:54:08;-11098.13;;;5.92;59.16
10145;BME280;5113;41.822;23.564;2024-02-15T01:57:15;-11104.88;;;6.17;58.43
10145;BME280;5113;41.822;23.564;2024-02-15T02:00:22;-11074.13;;;5.06;61.08
10145;BME280;5113;41.822;23.564;2024-02-15T02:03:29;-11077.63;;;5.18;60.41
10145;BME280;5113;41.822;23.564;2024-02-15T02:06:37;-11089.69;;;5.62;60.27
10145;BME280;5113;41.822;23.564;2024-02-15T02:09:46;-11117.38;;;6.62;58.08
10145;BME280;5113;41.822;23.564;2024-02-15T02:12:53;-11116.94;;;6.60;57.96
10145;BME280;5113;41.822;23.564;2024-02-15T02:16:00;-11114.13;;;6.50;57.98
10145;BME280;5113;41.822;23.564;2024-02-15T02:19:07;-11112.72;;;6.45;57.83
10145;BME280;5113;41.822;23.564;2024-02-15T02:22:14;-11110.75;;;6.38;57.81
10145;BME280;5113;41.822;23.564;2024-02-15T02:25:24;-11110.19;;;6.36;58.33
10145;BME280;5113;41.822;23.564;2024-02-15T02:28:32;-11109.91;;;6.35;58.33
10145;BME280;5113;41.822;23.564;2024-02-15T02:31:38;-11099.25;;;5.96;59.06
10145;BME280;5113;41.822;23.564;2024-02-15T02:34:45;-11107.41;;;6.26;58.20
10145;BME280;5113;41.822;23.564;2024-02-15T02:37:51;-11108.50;;;6.30;57.58
10145;BME280;5113;41.822;23.564;2024-02-15T02:41:00;-11115.53;;;6.55;58.15
10145;BME280;5113;41.822;23.564;2024-02-15T02:44:08;-11111.03;;;6.39;58.70
10145;BME280;5113;41.822;23.564;2024-02-15T02:47:15;-11114.28;;;6.51;58.47
10145;BME280;5113;41.822;23.564;2024-02-15T02:50:22;-11120.88;;;6.75;57.29
10145;BME280;5113;41.822;23.564;2024-02-15T02:53:29;-11112.44;;;6.44;58.38
10145;BME280;5113;41.822;23.564;2024-02-15T02:56:37;-11113.00;;;6.46;59.17
10145;BME280;5113;41.822;23.564;2024-02-15T02:59:44;-11111.19;;;6.40;58.59
10145;BME280;5113;41.822;23.564;2024-02-15T03:02:52;-11115.53;;;6.55;58.32
10145;BME280;5113;41.822;23.564;2024-02-15T03:06:02;-11118.91;;;6.68;58.09
10145;BME280;5113;41.822;23.564;2024-02-15T03:09:09;-11117.22;;;6.61;57.70
10145;BME280;5113;41.822;23.564;2024-02-15T03:12:17;-11123.13;;;6.83;58.68
10145;BME280;5113;41.822;23.564;2024-02-15T03:15:23;-11126.22;;;6.94;58.26
10145;BME280;5113;41.822;23.564;2024-02-15T03:18:30;-11125.94;;;6.93;58.11
10145;BME280;5113;41.822;23.564;2024-02-15T03:21:37;-11121.00;;;6.75;58.14
10145;BME280;5113;41.822;23.564;2024-02-15T03:24:43;-11119.75;;;6.71;58.59
10145;BME280;5113;41.822;23.564;2024-02-15T03:27:52;-11130.69;;;7.10;58.25
10145;BME280;5113;41.822;23.564;2024-02-15T03:30:59;-11125.94;;;6.93;57.74
10145;BME280;5113;41.822;23.564;2024-02-15T03:34:06;-11131.53;;;7.13;57.92
10145;BME280;5113;41.822;23.564;2024-02-15T03:37:16;-11118.63;;;6.67;59.01
10145;BME280;5113;41.822;23.564;2024-02-15T03:40:25;-11101.78;;;6.06;60.38
10145;BME280;5113;41.822;23.564;2024-02-15T03:43:33;-11081.84;;;5.34;62.69
10145;BME280;5113;41.822;23.564;2024-02-15T03:46:40;-11095.72;;;5.84;61.99
10145;BME280;5113;41.822;23.564;2024-02-15T03:49:48;-11082.94;;;5.38;63.21
10145;BME280;5113;41.822;23.564;2024-02-15T03:52:54;-11115.13;;;6.54;60.55
10145;BME280;5113;41.822;23.564;2024-02-15T03:56:01;-11112.03;;;6.43;61.50
10145;BME280;5113;41.822;23.564;2024-02-15T03:59:09;-11119.19;;;6.69;60.85
10145;BME280;5113;41.822;23.564;2024-02-15T04:02:18;-11096.44;;;5.86;61.59
10145;BME280;5113;41.822;23.564;2024-02-15T04:05:25;-11121.84;;;6.78;59.97
10145;BME280;5113;41.822;23.564;2024-02-15T04:08:32;-11097.13;;;5.89;61.37
10145;BME280;5113;41.822;23.564;2024-02-15T04:11:39;-11078.31;;;5.21;65.34
10145;BME280;5113;41.822;23.564;2024-02-15T04:14:47;-11090.25;;;5.64;64.36
10145;BME280;5113;41.822;23.564;2024-02-15T04:17:54;-11101.06;;;6.03;63.25
10145;BME280;5113;41.822;23.564;2024-02-15T04:21:03;-11098.13;;;5.92;63.93
10145;BME280;5113;41.822;23.564;2024-02-15T04:24:12;-11118.06;;;6.65;61.41
10145;BME280;5113;41.822;23.564;2024-02-15T04:27:19;-11134.22;;;7.23;60.21
10145;BME280;5113;41.822;23.564;2024-02-15T04:30:27;-11136.75;;;7.32;59.49
10145;BME280;5113;41.822;23.564;2024-02-15T04:33:34;-11137.16;;;7.34;59.51
10145;BME280;5113;41.822;23.564;2024-02-15T04:36:41;-11132.81;;;7.18;59.68
10145;BME280;5113;41.822;23.564;2024-02-15T04:39:49;-11135.63;;;7.28;59.80
10145;BME280;5113;41.822;23.564;2024-02-15T04:42:56;-11122.28;;;6.80;60.01
10145;BME280;5113;41.822;23.564;2024-02-15T04:46:05;-11136.59;;;7.32;59.57
10145;BME280;5113;41.822;23.564;2024-02-15T04:49:12;-11145.31;;;7.63;58.97
10145;BME280;5113;41.822;23.564;2024-02-15T04:52:20;-11141.53;;;7.49;59.07
10145;BME280;5113;41.822;23.564;2024-02-15T04:55:29;-11144.91;;;7.61;58.79
10145;BME280;5113;41.822;23.564;2024-02-15T04:58:37;-11130.69;;;7.10;59.24
10145;BME280;5113;41.822;23.564;2024-02-15T05:01:51;-11143.34;;;7.56;58.71
10145;BME280;5113;41.822;23.564;2024-02-15T05:04:58;-11150.38;;;7.81;58.25
10145;BME280;5113;41.822;23.564;2024-02-15T05:08:05;-11141.25;;;7.48;58.48
10145;BME280;5113;41.822;23.564;2024-02-15T05:11:14;-11138.56;;;7.39;59.22
10145;BME280;5113;41.822;23.564;2024-02-15T05:14:23;-11140.81;;;7.47;58.24
10145;BME280;5113;41.822;23.564;2024-02-15T05:17:33;-11149.25;;;7.77;58.39
10145;BME280;5113;41.822;23.564;2024-02-15T05:20:40;-11148.69;;;7.75;57.98
10145;BME280;5113;41.822;23.564;2024-02-15T05:23:46;-11139.69;;;7.43;58.62
10145;BME280;5113;41.822;23.564;2024-02-15T05:26:53;-11133.09;;;7.19;59.43
10145;BME280;5113;41.822;23.564;2024-02-15T05:30:00;-11142.78;;;7.54;58.65
10145;BME280;5113;41.822;23.564;2024-02-15T05:33:07;-11137.44;;;7.35;59.53
10145;BME280;5113;41.822;23.564;2024-02-15T05:36:16;-11154.03;;;7.94;58.25
10145;BME280;5113;41.822;23.564;2024-02-15T05:39:25;-11146.44;;;7.67;58.24
10145;BME280;5113;41.822;23.564;2024-02-15T05:42:31;-11125.78;;;6.92;59.85
10145;BME280;5113;41.822;23.564;2024-02-15T05:45:38;-11116.94;;;6.60;61.70
10145;BME280;5113;41.822;23.564;2024-02-15T05:48:46;-11131.53;;;7.13;60.17
10145;BME280;5113;41.822;23.564;2024-02-15T05:51:54;-11122.84;;;6.82;59.94
10145;BME280;5113;41.822;23.564;2024-02-15T05:55:02;-11096.56;;;5.87;64.85
10145;BME280;5113;41.822;23.564;2024-02-15T05:58:09;-11111.88;;;6.42;61.79
10145;BME280;5113;41.822;23.564;2024-02-15T06:01:16;-11134.06;;;7.22;59.72
10145;BME280;5113;41.822;23.564;2024-02-15T06:04:24;-11123.25;;;6.83;60.43
10145;BME280;5113;41.822;23.564;2024-02-15T06:07:32;-11125.66;;;6.92;60.03
10145;BME280;5113;41.822;23.564;2024-02-15T06:10:39;-11143.22;;;7.55;57.81
10145;BME280;5113;41.822;23.564;2024-02-15T06:13:46;-11130.00;;;7.08;58.90
10145;BME280;5113;41.822;23.564;2024-02-15T06:16:52;-11134.91;;;7.25;59.43
10145;BME280;5113;41.822;23.564;2024-02-15T06:20:01;-11119.19;;;6.69;59.56
10145;BME280;5113;41.822;23.564;2024-02-15T06:23:07;-11134.34;;;7.23;59.41
10145;BME280;5113;41.822;23.564;2024-02-15T06:26:14;-11148.81;;;7.76;57.94
10145;BME280;5113;41.822;23.564;2024-02-15T06:29:21;-11143.62;;;7.57;57.69
10145;BME280;5113;41.822;23.564;2024-02-15T06:32:46;-11120.88;;;6.75;59.69
10145;BME280;5113;41.822;23.564;2024-02-15T06:36:12;-11104.88;;;6.17;62.50
10145;BME280;5113;41.822;23.564;2024-02-15T06:39:36;-11145.03;;;7.62;58.55
10145;BME280;5113;41.822;23.564;2024-02-15T06:42:48;-11129.31;;;7.05;58.98
10145;BME280;5113;41.822;23.564;2024-02-15T06:45:55;-11135.63;;;7.28;59.23
10145;BME280;5113;41.822;23.564;2024-02-15T06:49:01;-11132.09;;;7.15;60.11
10145;BME280;5113;41.822;23.564;2024-02-15T06:52:12;-11137.59;;;7.35;59.30
10145;BME280;5113;41.822;23.564;2024-02-15T06:55:19;-11136.03;;;7.29;59.06
10145;BME280;5113;41.822;23.564;2024-02-15T06:58:27;-11132.81;;;7.18;59.24
10145;BME280;5113;41.822;23.564;2024-02-15T07:01:34;-11149.94;;;7.80;57.95
10145;BME280;5113;41.822;23.564;2024-02-15T07:04:41;-11143.06;;;7.55;58.79
10145;BME280;5113;41.822;23.564;2024-02-15T07:07:52;-11167.25;;;8.42;56.46
10145;BME280;5113;41.822;23.564;2024-02-15T07:11:00;-11140.25;;;7.45;58.48
10145;BME280;5113;41.822;23.564;2024-02-15T07:14:07;-11183.53;;;9.01;55.25
10145;BME280;5113;41.822;23.564;2024-02-15T07:17:14;-11140.25;;;7.45;58.77
10145;BME280;5113;41.822;23.564;2024-02-15T07:20:21;-11181.44;;;8.93;55.59
10145;BME280;5113;41.822;23.564;2024-02-15T07:23:30;-11205.06;;;9.79;53.62
10145;BME280;5113;41.822;23.564;2024-02-15T07:26:42;-11184.94;;;9.06;54.77
10145;BME280;5113;41.822;23.564;2024-02-15T07:29:50;-11190.28;;;9.25;53.44
10145;BME280;5113;41.822;23.564;2024-02-15T07:32:57;-11209.84;;;9.96;52.02
10145;BME280;5113;41.822;23.564;2024-02-15T07:36:04;-11222.63;;;10.42;50.90
10145;BME280;5113;41.822;23.564;2024-02-15T07:39:12;-11213.91;;;10.11;52.01
10145;BME280;5113;41.822;23.564;2024-02-15T07:42:29;-11228.13;;;10.62;50.98
10145;BME280;5113;41.822;23.564;2024-02-15T07:45:36;-11215.31;;;10.16;51.09
10145;BME280;5113;41.822;23.564;2024-02-15T07:48:43;-11228.25;;;10.63;50.55
10145;BME280;5113;41.822;23.564;2024-02-15T07:51:51;-11241.47;;;11.10;49.54
10145;BME280;5113;41.822;23.564;2024-02-15T07:55:00;-11225.44;;;10.52;50.19
10145;BME280;5113;41.822;23.564;2024-02-15T07:58:13;-11235.59;;;10.89;50.70
10145;BME280;5113;41.822;23.564;2024-02-15T08:01:23;-11245.84;;;11.26;48.85
10145;BME280;5113;41.822;23.564;2024-02-15T08:04:30;-11248.09;;;11.34;50.09
10145;BME280;5113;41.822;23.564;2024-02-15T08:07:37;-11259.50;;;11.75;47.21
10145;BME280;5113;41.822;23.564;2024-02-15T08:10:46;-11253.72;;;11.54;48.21
10145;BME280;5113;41.822;23.564;2024-02-15T08:13:56;-11268.38;;;12.07;46.02
10145;BME280;5113;41.822;23.564;2024-02-15T08:17:04;-11256.13;;;11.63;48.02
10145;BME280;5113;41.822;23.564;2024-02-15T08:20:14;-11232.75;;;10.79;49.49
10145;BME280;5113;41.822;23.564;2024-02-15T08:23:22;-11273.00;;;12.24;47.72
10145;BME280;5113;41.822;23.564;2024-02-15T08:26:31;-11264.28;;;11.93;48.21
10145;BME280;5113;41.822;23.564;2024-02-15T08:29:38;-11278.63;;;12.44;47.02
10145;BME280;5113;41.822;23.564;2024-02-15T08:32:46;-11267.09;;;12.03;47.50
10145;BME280;5113;41.822;23.564;2024-02-15T08:35:53;-11281.44;;;12.54;46.65
10145;BME280;5113;41.822;23.564;2024-02-15T08:39:01;-11296.50;;;13.09;46.40
10145;BME280;5113;41.822;23.564;2024-02-15T08:42:10;-11289.47;;;12.83;46.32
10145;BME280;5113;41.822;23.564;2024-02-15T08:45:17;-11299.91;;;13.21;46.26
10145;BME280;5113;41.822;23.564;2024-02-15T08:48:25;-11261.47;;;11.82;47.40
10145;BME280;5113;41.822;23.564;2024-02-15T08:51:32;-11319.19;;;13.91;45.53
10145;BME280;5113;41.822;23.564;2024-02-15T08:54:39;-11267.09;;;12.03;47.18
10145;BME280;5113;41.822;23.564;2024-02-15T08:57:48;-11312.13;;;13.65;45.09
10145;BME280;5113;41.822;23.564;2024-02-15T09:00:54;-11302.84;;;13.32;46.04
10145;BME280;5113;41.822;23.564;2024-02-15T09:04:01;-11303.97;;;13.36;44.69
10145;BME280;5113;41.822;23.564;2024-02-15T09:07:07;-11321.28;;;13.98;45.23
10145;BME280;5113;41.822;23.564;2024-02-15T09:10:15;-11301.16;;;13.26;44.79
10145;BME280;5113;41.822;23.564;2024-02-15T09:13:24;-11319.19;;;13.91;43.68
10145;BME280;5113;41.822;23.564;2024-02-15T09:16:30;-11306.50;;;13.45;44.22
10145;BME280;5113;41.822;23.564;2024-02-15T09:19:38;-11294.41;;;13.01;44.53
10145;BME280;5113;41.822;23.564;2024-02-15T09:22:48;-11288.19;;;12.79;45.70
10145;BME280;5113;41.822;23.564;2024-02-15T09:25:54;-11289.91;;;12.85;42.98
10145;BME280;5113;41.822;23.564;2024-02-15T09:29:03;-11332.13;;;14.37;41.74
10145;BME280;5113;41.822;23.564;2024-02-15T09:32:12;-11329.03;;;14.26;40.94
10145;BME280;5113;41.822;23.564;2024-02-15T09:35:19;-11334.66;;;14.46;41.29
10145;BME280;5113;41.822;23.564;2024-02-15T09:38:26;-11386.50;;;16.33;38.25
10145;BME280;5113;41.822;23.564;2024-02-15T09:41:33;-11378.34;;;16.04;39.40
10145;BME280;5113;41.822;23.564;2024-02-15T09:44:41;-11375.25;;;15.93;38.61
10145;BME280;5113;41.822;23.564;2024-02-15T09:47:50;-11381.03;;;16.13;39.28
10145;BME280;5113;41.822;23.564;2024-02-15T09:50:58;-11362.28;;;15.46;40.25
10145;BME280;5113;41.822;23.564;2024-02-15T09:54:06;-11374.13;;;15.89;39.95
10145;BME280;5113;41.822;23.564;2024-02-15T09:57:15;-11367.22;;;15.64;38.89
10145;BME280;5113;41.822;23.564;2024-02-15T10:00:24;-11399.75;;;16.81;37.25
10145;BME280;5113;41.822;23.564;2024-02-15T10:03:32;-11384.13;;;16.25;37.94
10145;BME280;5113;41.822;23.564;2024-02-15T10:06:40;-11387.63;;;16.37;37.64
10145;BME280;5113;41.822;23.564;2024-02-15T10:09:47;-11380.88;;;16.13;36.49
10145;BME280;5113;41.822;23.564;2024-02-15T10:12:55;-11355.94;;;15.23;37.34
10145;BME280;5113;41.822;23.564;2024-02-15T10:16:14;-11400.88;;;16.85;37.20
10145;BME280;5113;41.822;23.564;2024-02-15T10:19:22;-11387.50;;;16.37;38.25
10145;BME280;5113;41.822;23.564;2024-02-15T10:22:29;-11402.72;;;16.92;36.59
10145;BME280;5113;41.822;23.564;2024-02-15T10:25:37;-11382.84;;;16.20;36.30
10145;BME280;5113;41.822;23.564;2024-02-15T10:28:44;-11348.63;;;14.97;39.26
10145;BME280;5113;41.822;23.564;2024-02-15T10:31:54;-11384.81;;;16.27;36.71
10145;BME280;5113;41.822;23.564;2024-02-15T10:35:02;-11382.28;;;16.18;37.65
10145;BME280;5113;41.822;23.564;2024-02-15T10:38:11;-11369.31;;;15.71;37.18
10145;BME280;5113;41.822;23.564;2024-02-15T10:41:23;-11421.03;;;17.58;35.26
10145;BME280;5113;41.822;23.564;2024-02-15T10:44:32;-11407.94;;;17.10;35.79
10145;BME280;5113;41.822;23.564;2024-02-15T10:47:40;-11406.25;;;17.04;36.35
10145;BME280;5113;41.822;23.564;2024-02-15T10:50:51;-11415.53;;;17.38;35.19
10145;BME280;5113;41.822;23.564;2024-02-15T10:54:02;-11406.81;;;17.06;36.99
10145;BME280;5113;41.822;23.564;2024-02-15T10:57:11;-11411.88;;;17.25;35.80
10145;BME280;5113;41.822;23.564;2024-02-15T11:00:21;-11386.09;;;16.32;35.83
10145;BME280;5113;41.822;23.564;2024-02-15T11:03:35;-11374.25;;;15.89;35.79
10145;BME280;5113;41.822;23.564;2024-02-15T11:06:43;-11404.84;;;16.99;34.81
10145;BME280;5113;41.822;23.564;2024-02-15T11:09:52;-11368.19;;;15.67;36.19
10145;BME280;5113;41.822;23.564;2024-02-15T11:12:59;-11395.81;;;16.67;35.12
10145;BME280;5113;41.822;23.564;2024-02-15T11:16:08;-11418.78;;;17.49;34.63
10145;BME280;5113;41.822;23.564;2024-02-15T11:19:40;-11415.97;;;17.39;34.49
10145;BME280;5113;41.822;23.564;2024-02-15T11:22:56;-11386.66;;;16.34;35.41
10145;BME280;5113;41.822;23.564;2024-02-15T11:26:08;-11406.38;;;17.05;36.24
10145;BME280;5113;41.822;23.564;2024-02-15T11:29:49;-11351.00;;;15.05;36.11
10145;BME280;5113;41.822;23.564;2024-02-15T11:32:57;-11382.00;;;16.17;35.75
10145;BME280;5113;41.822;23.564;2024-02-15T11:36:07;-11397.38;;;16.72;35.74
10145;BME280;5113;41.822;23.564;2024-02-15T11:39:41;-11364.53;;;15.54;36.58
10145;BME280;5113;41.822;23.564;2024-02-15T11:42:49;-11381.72;;;16.16;35.81
10145;BME280;5113;41.822;23.564;2024-02-15T11:45:58;-11389.34;;;16.43;34.44
10145;BME280;5113;41.822;23.564;2024-02-15T11:49:04;-11397.78;;;16.74;35.02
10145;BME280;5113;41.822;23.564;2024-02-15T11:52:13;-11367.63;;;15.65;36.88
10145;BME280;5113;41.822;23.564;2024-02-15T11:55:22;-11367.63;;;15.65;36.00
10145;BME280;5113;41.822;23.564;2024-02-15T11:58:29;-11427.66;;;17.81;34.51
10145;BME280;5113;41.822;23.564;2024-02-15T12:01:47;-11446.28;;;18.48;33.11
10145;BME280;5113;41.822;23.564;2024-02-15T12:05:11;-11411.31;;;17.23;34.32
10145;BME280;5113;41.822;23.564;2024-02-15T12:08:37;-11401.16;;;16.86;34.79
10145;BME280;5113;41.822;23.564;2024-02-15T12:12:02;-11402.00;;;16.89;34.12
10145;BME280;5113;41.822;23.564;2024-02-15T12:15:27;-11375.25;;;15.93;34.81
10145;BME280;5113;41.822;23.564;2024-02-15T12:18:50;-11438.66;;;18.21;33.71
10145;BME280;5113;41.822;23.564;2024-02-15T12:22:00;-11436.97;;;18.15;32.82
10145;BME280;5113;41.822;23.564;2024-02-15T12:25:14;-11428.09;;;17.83;32.84
10145;BME280;5113;41.822;23.564;2024-02-15T12:28:22;-11480.13;;;19.70;31.39
10145;BME280;5113;41.822;23.564;2024-02-15T12:31:29;-11423.16;;;17.65;32.75
10145;BME280;5113;41.822;23.564;2024-02-15T12:34:36;-11473.50;;;19.46;31.76
10145;BME280;5113;41.822;23.564;2024-02-15T12:37:49;-11408.63;;;17.13;34.02
10145;BME280;5113;41.822;23.564;2024-02-15T12:41:19;-11436.41;;;18.13;33.17
10145;BME280;5113;41.822;23.564;2024-02-15T12:44:26;-11449.09;;;18.59;33.63
10145;BME280;5113;41.822;23.564;2024-02-15T12:47:37;-11448.38;;;18.56;32.11
10145;BME280;5113;41.822;23.564;2024-02-15T12:50:44;-11456.16;;;18.84;32.31
10145;BME280;5113;41.822;23.564;2024-02-15T12:53:51;-11419.34;;;17.52;34.01
10145;BME280;5113;41.822;23.564;2024-02-15T12:57:09;-11431.75;;;17.96;33.12
10145;BME280;5113;41.822;23.564;2024-02-15T13:00:24;-11456.16;;;18.84;32.89
10145;BME280;5113;41.822;23.564;2024-02-15T13:03:34;-11403.44;;;16.94;33.86
10145;BME280;5113;41.822;23.564;2024-02-15T13:06:41;-11446.84;;;18.51;32.65
10145;BME280;5113;41.822;23.564;2024-02-15T13:09:49;-11396.09;;;16.68;36.80
10145;BME280;5113;41.822;23.564;2024-02-15T13:12:58;-11349.88;;;15.01;38.78
10145;BME280;5113;41.822;23.564;2024-02-15T13:16:05;-11392.72;;;16.56;37.87
10145;BME280;5113;41.822;23.564;2024-02-15T13:19:12;-11342.13;;;14.73;39.60
10145;BME280;5113;41.822;23.564;2024-02-15T13:22:19;-11375.09;;;15.92;39.37
10145;BME280;5113;41.822;23.564;2024-02-15T13:25:25;-11384.13;;;16.25;38.13
10145;BME280;5113;41.822;23.564;2024-02-15T13:28:34;-11406.66;;;17.06;37.25
10145;BME280;5113;41.822;23.564;2024-02-15T13:31:40;-11390.47;;;16.47;38.76
10145;BME280;5113;41.822;23.564;2024-02-15T13:34:38;-11377.50;;;16.01;38.61
10145;BME280;5113;41.822;23.564;2024-02-15T13:37:46;-11395.25;;;16.65;37.98
10145;BME280;5113;41.822;23.564;2024-02-15T13:40:55;-11363.53;;;15.50;38.97
10145;BME280;5113;41.822;23.564;2024-02-15T13:44:06;-11422.03;;;17.61;37.22
10145;BME280;5113;41.822;23.564;2024-02-15T13:47:13;-11393.28;;;16.58;37.92
10145;BME280;5113;41.822;23.564;2024-02-15T13:50:21;-11367.34;;;15.64;39.08
10145;BME280;5113;41.822;23.564;2024-02-15T13:53:28;-11383.13;;;16.21;38.33
10145;BME280;5113;41.822;23.564;2024-02-15T13:56:35;-11344.25;;;14.81;40.20
10145;BME280;5113;41.822;23.564;2024-02-15T13:59:43;-11332.97;;;14.40;41.88
10145;BME280;5113;41.822;23.564;2024-02-15T14:02:50;-11339.31;;;14.63;41.34
10145;BME280;5113;41.822;23.564;2024-02-15T14:05:58;-11349.59;;;15.00;40.87
10145;BME280;5113;41.822;23.564;2024-02-15T14:09:06;-11359.59;;;15.36;40.44
10145;BME280;5113;41.822;23.564;2024-02-15T14:12:16;-11354.38;;;15.17;40.37
10145;BME280;5113;41.822;23.564;2024-02-15T14:15:24;-11369.88;;;15.73;39.70
10145;BME280;5113;41.822;23.564;2024-02-15T14:18:32;-11333.69;;;14.43;41.23
10145;BME280;5113;41.822;23.564;2024-02-15T14:21:38;-11340.31;;;14.67;40.24
10145;BME280;5113;41.822;23.564;2024-02-15T14:24:47;-11317.91;;;13.86;41.93
10145;BME280;5113;41.822;23.564;2024-02-15T14:27:54;-11319.47;;;13.92;41.59
10145;BME280;5113;41.822;23.564;2024-02-15T14:31:04;-11328.06;;;14.23;41.19
10145;BME280;5113;41.822;23.564;2024-02-15T14:34:28;-11307.22;;;13.47;42.28
10145;BME280;5113;41.822;23.564;2024-02-15T14:37:35;-11315.25;;;13.76;42.02
10145;BME280;5113;41.822;23.564;2024-02-15T14:40:42;-11305.94;;;13.43;42.64
10145;BME280;5113;41.822;23.564;2024-02-15T14:43:51;-11287.91;;;12.78;43.45
10145;BME280;5113;41.822;23.564;2024-02-15T14:47:01;-11313.00;;;13.68;42.98
10145;BME280;5113;41.822;23.564;2024-02-15T14:50:08;-11318.19;;;13.87;42.67
10145;BME280;5113;41.822;23.564;2024-02-15T14:53:18;-11304.81;;;13.39;43.17
10145;BME280;5113;41.822;23.564;2024-02-15T14:56:25;-11305.38;;;13.41;43.05
10145;BME280;5113;41.822;23.564;2024-02-15T14:59:31;-11303.84;;;13.35;43.43
10145;BME280;5113;41.822;23.564;2024-02-15T15:02:41;-11315.81;;;13.78;43.23
10145;BME280;5113;41.822;23.564;2024-02-15T15:05:48;-11282.72;;;12.59;44.69
10145;BME280;5113;41.822;23.564;2024-02-15T15:09:13;-11309.19;;;13.54;43.07
10145;BME280;5113;41.822;23.564;2024-02-15T15:12:39;-11309.47;;;13.55;42.92
10145;BME280;5113;41.822;23.564;2024-02-15T15:15:51;-11306.09;;;13.43;43.69
10145;BME280;5113;41.822;23.564;2024-02-15T15:19:00;-11307.50;;;13.48;42.71
10145;BME280;5113;41.822;23.564;2024-02-15T15:22:07;-11310.44;;;13.59;42.90
10145;BME280;5113;41.822;23.564;2024-02-15T15:25:13;-11307.91;;;13.50;42.81
10145;BME280;5113;41.822;23.564;2024-02-15T15:28:20;-11319.03;;;13.90;42.79
10145;BME280;5113;41.822;23.564;2024-02-15T15:31:27;-11298.63;;;13.16;43.58
10145;BME280;5113;41.822;23.564;2024-02-15T15:34:36;-11308.91;;;13.53;43.31
10145;BME280;5113;41.822;23.564;2024-02-15T15:37:43;-11311.00;;;13.61;43.31
10145;BME280;5113;41.822;23.564;2024-02-15T15:40:50;-11322.84;;;14.04;42.77
10145;BME280;5113;41.822;23.564;2024-02-15T15:43:59;-11316.66;;;13.81;43.41
10145;BME280;5113;41.822;23.564;2024-02-15T15:47:06;-11311.56;;;13.63;43.20
10145;BME280;5113;41.822;23.564;2024-02-15T15:50:14;-11306.66;;;13.45;44.53
10145;BME280;5113;41.822;23.564;2024-02-15T15:53:22;-11296.66;;;13.09;44.87
10145;BME280;5113;41.822;23.564;2024-02-15T15:56:28;-11308.06;;;13.50;44.32
10145;BME280;5113;41.822;23.564;2024-02-15T15:59:39;-11291.59;;;12.91;45.82
10145;BME280;5113;41.822;23.564;2024-02-15T16:02:45;-11290.19;;;12.86;45.61
10145;BME280;5113;41.822;23.564;2024-02-15T16:05:54;-11262.88;;;11.87;47.83
10145;BME280;5113;41.822;23.564;2024-02-15T16:09:01;-11251.63;;;11.47;48.59
10145;BME280;5113;41.822;23.564;2024-02-15T16:12:09;-11242.03;;;11.12;48.94
10145;BME280;5113;41.822;23.564;2024-02-15T16:15:16;-11244.88;;;11.22;48.74
10145;BME280;5113;41.822;23.564;2024-02-15T16:18:23;-11243.75;;;11.18;49.12
10145;BME280;5113;41.822;23.564;2024-02-15T16:21:31;-11233.31;;;10.81;49.91
10145;BME280;5113;41.822;23.564;2024-02-15T16:24:38;-11232.91;;;10.79;49.76
10145;BME280;5113;41.822;23.564;2024-02-15T16:27:45;-11241.47;;;11.10;49.28
10145;BME280;5113;41.822;23.564;2024-02-15T16:30:52;-11233.19;;;10.80;49.93
10145;BME280;5113;41.822;23.564;2024-02-15T16:33:59;-11211.66;;;10.03;50.76